Dunbarton, New Hampshire
Current Conditions -  °F | °C
As of 4:51 AM on Sunday 23 Nov 2014 (Local Time) from KCON Reporting Station
Scattered Clouds Scattered Clouds  
Wind Chill: 34°   Ceiling: Unl
Heat Index: 34°   Visibility: 10mi
Dew Point: 30°   Wind: 3mph
Humidity: 85%   Direction: 190°S
Pressure: 30.03"   Gusts: NA
Location:  43.11°N, 71.59°W
Report Text: KCON 230951Z AUTO 19003KT 10SM SCT075 SCT120 01/M01 A3003 RMK AO2 RAB10E11B29E43UPB11E29 SLP173 P0000 T00111011
Loading
Personal Weather Stations






























Interactive Weather Map New forecast layout! Learn more

10-Day Weather Forecast

Advertisements
Track Severe Weather on mobile